createdAt,value
2018-08-22T00:01:34.407Z,50.60
2018-08-22T00:04:03.798Z,50.60
2018-08-22T00:06:33.264Z,50.50
2018-08-22T00:09:02.047Z,50.90
2018-08-22T00:11:31.574Z,51.00
2018-08-22T00:14:00.488Z,51.10
2018-08-22T00:16:29.333Z,51.30
2018-08-22T00:18:58.148Z,51.30
2018-08-22T00:21:28.375Z,51.40
2018-08-22T00:23:57.647Z,51.30
2018-08-22T00:26:26.342Z,51.30
2018-08-22T00:28:55.263Z,51.10
2018-08-22T00:31:24.122Z,51.00
2018-08-22T00:33:55.081Z,50.80
2018-08-22T00:36:24.628Z,50.70
2018-08-22T00:38:53.657Z,50.70
2018-08-22T00:41:22.583Z,50.60
2018-08-22T00:43:51.944Z,50.60
2018-08-22T00:46:20.741Z,50.50
2018-08-22T00:48:49.572Z,50.80
2018-08-22T00:51:18.460Z,50.80
2018-08-22T00:53:47.724Z,50.80
2018-08-22T00:56:19.302Z,50.70
2018-08-22T00:58:48.084Z,50.70
2018-08-22T01:01:17.509Z,50.60
2018-08-22T01:03:46.261Z,50.90
2018-08-22T01:06:16.673Z,51.30
2018-08-22T01:08:46.332Z,51.30
2018-08-22T01:11:15.317Z,51.30
2018-08-22T01:13:44.733Z,51.00
2018-08-22T01:16:14.432Z,51.00
2018-08-22T01:18:43.076Z,51.00
2018-08-22T01:21:12.400Z,51.00
2018-08-22T01:23:41.393Z,50.90
2018-08-22T01:26:10.541Z,50.90
2018-08-22T01:28:40.785Z,50.80
2018-08-22T01:31:09.737Z,50.80
2018-08-22T01:33:38.949Z,50.80
2018-08-22T01:36:08.315Z,50.90
2018-08-22T01:38:38.156Z,50.90
2018-08-22T01:41:07.634Z,51.00
2018-08-22T01:43:36.744Z,51.20
2018-08-22T01:46:05.564Z,51.60
2018-08-22T01:48:34.494Z,51.90
2018-08-22T01:51:03.863Z,51.90
2018-08-22T01:53:32.649Z,51.90
2018-08-22T01:56:01.824Z,52.10
2018-08-22T01:58:31.443Z,51.80
2018-08-22T02:01:00.677Z,51.70
2018-08-22T02:03:30.365Z,51.70
2018-08-22T02:05:59.144Z,52.10
2018-08-22T02:08:28.013Z,52.20
2018-08-22T02:10:56.816Z,52.20
2018-08-22T02:13:25.811Z,52.10
2018-08-22T02:15:55.735Z,52.20
2018-08-22T02:18:24.632Z,52.20
2018-08-22T02:20:53.396Z,52.70
2018-08-22T02:23:22.262Z,52.80
2018-08-22T02:25:52.033Z,52.90
2018-08-22T02:28:20.873Z,52.80
2018-08-22T02:30:50.206Z,52.80
2018-08-22T02:33:19.095Z,52.80
2018-08-22T02:35:47.944Z,53.20
2018-08-22T02:38:22.415Z,52.80
2018-08-22T02:40:51.606Z,52.70
2018-08-22T02:43:21.244Z,52.80
2018-08-22T02:45:50.006Z,52.90
2018-08-22T02:48:19.511Z,53.00
2018-08-22T02:50:48.151Z,53.00
2018-08-22T02:53:16.909Z,53.00
2018-08-22T02:55:46.667Z,52.90
2018-08-22T02:58:15.584Z,53.50
2018-08-22T03:00:45.101Z,52.90
2018-08-22T03:03:14.088Z,52.90
2018-08-22T03:05:47.753Z,52.90
2018-08-22T03:08:16.569Z,53.20
2018-08-22T03:10:45.882Z,53.40
2018-08-22T03:13:14.767Z,53.40
2018-08-22T03:15:43.709Z,53.30
2018-08-22T03:18:13.064Z,53.30
2018-08-22T03:20:42.096Z,53.20
2018-08-22T03:23:10.802Z,53.30
2018-08-22T03:25:40.687Z,53.20
2018-08-22T03:28:09.967Z,53.10
2018-08-22T03:30:39.357Z,53.10
2018-08-22T03:33:08.196Z,53.10
2018-08-22T03:35:37.669Z,53.40
2018-08-22T03:38:06.555Z,53.40
2018-08-22T03:40:36.161Z,53.40
2018-08-22T03:43:06.698Z,53.40
2018-08-22T03:45:35.325Z,53.40
2018-08-22T03:48:04.280Z,53.30
2018-08-22T03:50:33.884Z,53.20
2018-08-22T03:53:03.465Z,53.20
2018-08-22T03:55:33.036Z,53.50
2018-08-22T03:58:02.631Z,53.60
2018-08-22T04:00:32.177Z,53.40
2018-08-22T04:03:01.219Z,53.60
2018-08-22T04:05:30.097Z,53.90
2018-08-22T04:07:58.853Z,54.00
2018-08-22T04:10:28.630Z,53.80
2018-08-22T04:12:57.657Z,54.00
2018-08-22T04:15:26.574Z,54.00
2018-08-22T04:17:56.064Z,54.10
2018-08-22T04:20:26.180Z,54.00
2018-08-22T04:22:56.210Z,54.10
2018-08-22T04:25:25.646Z,54.20
2018-08-22T04:27:54.658Z,54.20
2018-08-22T04:30:23.592Z,54.10
2018-08-22T04:32:52.463Z,54.20
2018-08-22T04:35:21.272Z,54.70
2018-08-22T04:37:50.454Z,55.00
2018-08-22T04:40:19.465Z,54.90
2018-08-22T04:42:48.489Z,55.20
2018-08-22T04:45:17.363Z,55.40
2018-08-22T04:47:46.280Z,55.40
2018-08-22T04:50:14.928Z,55.80
2018-08-22T04:52:44.579Z,55.70
2018-08-22T04:55:13.349Z,55.60
2018-08-22T04:57:42.322Z,55.70
2018-08-22T05:00:11.394Z,55.60
2018-08-22T05:02:40.130Z,55.60
2018-08-22T05:05:09.529Z,55.50
2018-08-22T05:07:38.246Z,55.40
2018-08-22T05:10:07.237Z,55.60
2018-08-22T05:12:36.974Z,55.80
2018-08-22T05:15:05.829Z,55.60
2018-08-22T05:17:35.373Z,55.50
2018-08-22T05:20:04.374Z,55.40
2018-08-22T05:22:33.915Z,55.30
2018-08-22T05:25:03.489Z,55.10
2018-08-22T05:27:32.111Z,55.10
2018-08-22T05:30:01.093Z,55.00
2018-08-22T05:32:30.004Z,54.80
2018-08-22T05:34:58.873Z,54.80
2018-08-22T05:37:27.822Z,54.90
2018-08-22T05:39:56.773Z,55.00
2018-08-22T05:42:25.573Z,55.00
2018-08-22T05:44:54.373Z,54.80
2018-08-22T05:47:23.332Z,54.70
2018-08-22T05:49:52.820Z,54.60
2018-08-22T05:52:22.280Z,54.50
2018-08-22T05:54:51.485Z,54.50
2018-08-22T05:57:20.904Z,54.40
2018-08-22T05:59:49.987Z,54.20
2018-08-22T06:02:18.998Z,54.30
2018-08-22T06:04:49.255Z,54.30
2018-08-22T06:07:18.146Z,54.30
2018-08-22T06:09:47.557Z,54.20
2018-08-22T06:12:16.376Z,54.00
2018-08-22T06:14:45.600Z,54.10
2018-08-22T06:17:15.033Z,54.00
2018-08-22T06:19:44.016Z,54.00
2018-08-22T06:22:13.357Z,54.00
2018-08-22T06:24:41.990Z,54.60
2018-08-22T06:27:10.956Z,53.80
2018-08-22T06:29:39.848Z,53.80
2018-08-22T06:32:08.708Z,53.80
2018-08-22T06:34:37.691Z,53.80
2018-08-22T06:37:06.838Z,53.70
2018-08-22T06:39:36.138Z,53.60
2018-08-22T06:42:05.005Z,53.50
2018-08-22T06:44:34.998Z,53.40
2018-08-22T06:47:03.812Z,53.40
2018-08-22T06:49:33.469Z,53.30
2018-08-22T06:52:02.929Z,53.30
2018-08-22T06:54:31.806Z,53.20
2018-08-22T06:57:00.508Z,53.10
2018-08-22T06:59:29.370Z,53.00
2018-08-22T07:01:58.079Z,53.00
2018-08-22T07:04:27.500Z,53.10
2018-08-22T07:06:56.445Z,53.10
2018-08-22T07:09:25.318Z,53.80
2018-08-22T07:11:54.383Z,52.90
2018-08-22T07:14:23.161Z,53.40
2018-08-22T07:16:52.643Z,52.50
2018-08-22T07:19:21.639Z,52.30
2018-08-22T07:21:50.989Z,52.20
2018-08-22T07:24:20.477Z,52.20
2018-08-22T07:26:49.245Z,52.80
2018-08-22T07:29:18.360Z,52.10
2018-08-22T07:31:47.221Z,51.90
2018-08-22T07:34:16.742Z,51.60
2018-08-22T07:36:45.920Z,51.60
2018-08-22T07:39:14.770Z,51.50
2018-08-22T07:41:43.553Z,51.30
2018-08-22T07:44:12.401Z,51.00
2018-08-22T07:46:41.130Z,51.10
2018-08-22T07:49:09.996Z,51.10
2018-08-22T07:51:38.806Z,51.00
2018-08-22T07:54:07.927Z,51.00
2018-08-22T07:56:37.604Z,50.90
2018-08-22T07:59:13.720Z,51.00
2018-08-22T08:01:42.659Z,50.90
2018-08-22T08:04:13.147Z,50.90
2018-08-22T08:06:42.145Z,51.00
2018-08-22T08:09:13.211Z,50.90
2018-08-22T08:11:41.877Z,51.00
2018-08-22T08:14:10.937Z,51.00
2018-08-22T08:16:39.693Z,50.90
2018-08-22T08:19:09.082Z,50.90
2018-08-22T08:21:38.590Z,50.80
2018-08-22T08:24:07.728Z,50.80
2018-08-22T08:26:40.861Z,50.80
2018-08-22T08:29:09.671Z,50.70
2018-08-22T08:31:38.536Z,50.90
2018-08-22T08:34:07.479Z,51.00
2018-08-22T08:36:41.069Z,51.00
2018-08-22T08:39:11.216Z,51.00
2018-08-22T08:41:40.119Z,50.90
2018-08-22T08:44:10.064Z,50.90
2018-08-22T08:46:39.194Z,50.80
2018-08-22T08:49:08.017Z,50.80
2018-08-22T08:51:41.532Z,50.90
2018-08-22T08:54:10.974Z,50.80
2018-08-22T08:56:40.800Z,50.50
2018-08-22T08:59:09.835Z,50.30
2018-08-22T09:01:38.578Z,50.70
2018-08-22T09:04:07.347Z,49.90
2018-08-22T09:06:36.489Z,49.80
2018-08-22T09:09:08.460Z,49.70
2018-08-22T09:11:39.643Z,49.70
2018-08-22T09:14:08.473Z,49.40
2018-08-22T09:16:37.529Z,49.20
2018-08-22T09:19:06.561Z,49.00
2018-08-22T09:21:35.928Z,48.80
2018-08-22T09:24:04.678Z,48.60
2018-08-22T09:26:33.353Z,48.60
2018-08-22T09:29:02.258Z,48.50
2018-08-22T09:31:31.222Z,48.50
2018-08-22T09:34:01.026Z,48.50
2018-08-22T09:36:29.914Z,48.40
2018-08-22T09:38:58.885Z,48.00
2018-08-22T09:41:27.683Z,47.50
2018-08-22T09:43:56.624Z,46.80
2018-08-22T09:46:25.521Z,47.10
2018-08-22T09:48:54.368Z,46.20
2018-08-22T09:51:23.290Z,46.10
2018-08-22T09:53:53.772Z,45.90
2018-08-22T09:56:23.428Z,45.90
2018-08-22T09:58:52.567Z,46.10
2018-08-22T10:01:22.628Z,46.20
2018-08-22T10:03:56.219Z,46.10
2018-08-22T10:06:35.763Z,46.00
2018-08-22T10:09:08.582Z,45.70
2018-08-22T10:11:37.533Z,45.40
2018-08-22T10:14:06.476Z,45.10
2018-08-22T10:16:35.924Z,44.90
2018-08-22T10:19:04.886Z,44.90
2018-08-22T10:21:38.237Z,44.70
2018-08-22T10:24:07.183Z,44.50
2018-08-22T10:26:37.695Z,44.60
2018-08-22T10:29:07.192Z,44.70
2018-08-22T10:31:36.756Z,44.70
2018-08-22T10:34:05.658Z,44.50
2018-08-22T10:36:35.291Z,44.20
2018-08-22T10:39:06.844Z,44.30
2018-08-22T10:41:36.470Z,44.80
2018-08-22T10:44:05.516Z,44.80
2018-08-22T10:46:34.734Z,44.90
2018-08-22T10:49:04.026Z,44.70
2018-08-22T10:51:33.190Z,44.00
2018-08-22T10:54:02.596Z,43.80
2018-08-22T10:56:31.968Z,43.50
2018-08-22T10:59:00.794Z,43.00
2018-08-22T11:01:29.989Z,42.50
2018-08-22T11:03:58.917Z,42.30
2018-08-22T11:06:27.537Z,42.30
2018-08-22T11:08:56.381Z,42.10
2018-08-22T11:11:25.225Z,41.90
2018-08-22T11:13:55.102Z,41.80
2018-08-22T11:16:23.994Z,41.60
2018-08-22T11:18:53.393Z,41.60
2018-08-22T11:21:33.076Z,41.40
2018-08-22T11:24:13.102Z,40.90
2018-08-22T11:26:52.847Z,41.00
2018-08-22T11:29:33.345Z,40.60
2018-08-22T11:32:13.393Z,40.60
2018-08-22T11:34:49.903Z,40.40
2018-08-22T11:37:19.081Z,40.00
2018-08-22T11:39:49.670Z,40.00
2018-08-22T11:42:20.526Z,39.40
2018-08-22T11:44:50.243Z,39.20
2018-08-22T11:47:19.159Z,39.20
2018-08-22T11:49:47.950Z,39.10
2018-08-22T11:52:17.329Z,39.10
2018-08-22T11:54:45.985Z,39.00
2018-08-22T11:57:15.252Z,38.90
2018-08-22T11:59:43.918Z,38.80
2018-08-22T12:02:12.766Z,38.80
2018-08-22T12:04:42.301Z,38.50
2018-08-22T12:07:10.959Z,39.00
2018-08-22T12:09:39.669Z,38.10
2018-08-22T12:12:08.393Z,37.90
2018-08-22T12:14:37.173Z,38.20
2018-08-22T12:17:05.914Z,38.20
2018-08-22T12:19:35.254Z,38.00
2018-08-22T12:22:03.868Z,38.10
2018-08-22T12:24:32.585Z,37.90
2018-08-22T12:27:01.259Z,37.60
2018-08-22T12:29:29.924Z,37.50
2018-08-22T12:31:58.933Z,37.60
2018-08-22T12:34:27.611Z,37.70
2018-08-22T12:36:56.408Z,37.80
2018-08-22T12:39:25.110Z,37.70
2018-08-22T12:41:53.797Z,37.40
2018-08-22T12:44:22.504Z,37.30
2018-08-22T12:46:51.149Z,36.50
2018-08-22T12:49:19.798Z,36.20
2018-08-22T12:51:50.783Z,36.10
2018-08-22T12:54:19.440Z,36.20
2018-08-22T12:56:48.120Z,36.20
2018-08-22T12:59:16.861Z,36.20
2018-08-22T13:01:45.567Z,36.20
2018-08-22T13:04:14.300Z,36.10
2018-08-22T13:06:43.041Z,36.00
2018-08-22T13:09:12.079Z,35.90
2018-08-22T13:11:41.125Z,35.90
2018-08-22T13:14:09.832Z,35.60
2018-08-22T13:16:38.530Z,35.50
2018-08-22T13:19:07.254Z,35.30
2018-08-22T13:21:37.356Z,35.40
2018-08-22T13:24:06.088Z,35.50
2018-08-22T13:26:35.349Z,35.50
2018-08-22T13:29:04.076Z,35.50
2018-08-22T13:31:32.804Z,35.30
2018-08-22T13:34:01.466Z,35.00
2018-08-22T13:36:30.135Z,34.90
2018-08-22T13:38:58.796Z,34.80
2018-08-22T13:41:27.591Z,34.80
2018-08-22T13:43:56.350Z,34.70
2018-08-22T13:46:25.067Z,34.70
2018-08-22T13:48:53.886Z,34.70
2018-08-22T13:51:22.557Z,34.60
2018-08-22T13:53:51.216Z,34.60
2018-08-22T13:56:20.298Z,34.50
2018-08-22T13:58:48.981Z,34.50
2018-08-22T14:01:17.803Z,34.40
2018-08-22T14:03:46.575Z,34.40
2018-08-22T14:06:15.279Z,34.20
2018-08-22T14:08:44.010Z,34.10
2018-08-22T14:11:12.718Z,34.20
2018-08-22T14:13:41.452Z,33.80
2018-08-22T14:16:10.176Z,33.90
2018-08-22T14:18:38.850Z,34.00
2018-08-22T14:21:07.541Z,33.80
2018-08-22T14:23:37.291Z,33.90
2018-08-22T14:26:06.265Z,34.00
2018-08-22T14:28:35.916Z,33.90
2018-08-22T14:31:04.659Z,34.00
2018-08-22T14:33:33.362Z,34.20
2018-08-22T14:36:02.064Z,34.30
2018-08-22T14:38:30.793Z,34.40
2018-08-22T14:40:59.441Z,34.40
2018-08-22T14:43:28.203Z,34.40
2018-08-22T14:45:56.971Z,34.50
2018-08-22T14:48:26.302Z,34.70
2018-08-22T14:50:54.992Z,34.80
2018-08-22T14:53:23.644Z,35.00
2018-08-22T14:55:52.504Z,35.10
2018-08-22T14:58:21.079Z,35.10
2018-08-22T15:00:49.789Z,34.90
2018-08-22T15:03:19.037Z,35.10
2018-08-22T15:05:48.073Z,35.30
2018-08-22T15:08:16.726Z,35.30
2018-08-22T15:10:47.967Z,35.40
2018-08-22T15:13:16.714Z,35.20
2018-08-22T15:15:45.546Z,35.30
2018-08-22T15:18:14.524Z,35.30
2018-08-22T15:20:43.210Z,35.50
2018-08-22T15:23:11.930Z,35.20
2018-08-22T15:25:40.589Z,35.30
2018-08-22T15:28:09.289Z,35.40
2018-08-22T15:30:38.021Z,36.00
2018-08-22T15:33:06.750Z,35.50
2018-08-22T15:35:36.321Z,35.60
2018-08-22T15:38:05.113Z,35.50
2018-08-22T15:40:35.097Z,35.50
2018-08-22T15:43:03.793Z,35.50
2018-08-22T15:45:32.508Z,35.40
2018-08-22T15:48:01.232Z,35.30
2018-08-22T15:50:29.902Z,35.30
2018-08-22T15:52:58.686Z,35.20
2018-08-22T15:55:27.396Z,35.20
2018-08-22T15:58:02.897Z,35.10
2018-08-22T16:00:44.196Z,35.50
2018-08-22T16:03:12.877Z,34.70
2018-08-22T16:05:43.727Z,34.60
2018-08-22T16:08:13.131Z,34.50
2018-08-22T16:10:41.952Z,34.30
2018-08-22T16:13:27.996Z,34.20
2018-08-22T16:15:57.866Z,34.10
2018-08-22T16:18:26.497Z,33.90
2018-08-22T16:20:58.283Z,33.90
2018-08-22T16:23:28.575Z,33.90
2018-08-22T16:25:58.557Z,33.60
2018-08-22T16:28:28.057Z,33.60
2018-08-22T16:30:58.060Z,33.60
2018-08-22T16:33:26.714Z,33.50
2018-08-22T16:35:55.464Z,33.60
2018-08-22T16:38:24.144Z,33.70
2018-08-22T16:40:53.932Z,33.60
2018-08-22T16:43:39.100Z,33.60
2018-08-22T16:46:10.368Z,33.70
2018-08-22T16:48:39.878Z,33.70
2018-08-22T16:51:08.617Z,33.80
2018-08-22T16:53:37.293Z,33.80
2018-08-22T16:56:06.098Z,33.80
2018-08-22T16:58:34.787Z,33.90
2018-08-22T17:01:03.459Z,34.00
2018-08-22T17:03:32.139Z,34.20
2018-08-22T17:06:06.024Z,34.30
2018-08-22T17:08:35.073Z,34.50
2018-08-22T17:11:05.071Z,34.70
2018-08-22T17:13:45.246Z,35.00
2018-08-22T17:16:13.940Z,35.30
2018-08-22T17:18:43.234Z,35.60
2018-08-22T17:21:11.952Z,35.90
2018-08-22T17:23:41.119Z,36.10
2018-08-22T17:26:13.765Z,36.40
2018-08-22T17:28:44.569Z,36.60
2018-08-22T17:31:14.113Z,36.80
2018-08-22T17:33:43.967Z,37.20
2018-08-22T17:36:13.322Z,37.30
2018-08-22T17:38:45.325Z,37.60
2018-08-22T17:41:14.509Z,37.70
2018-08-22T17:43:55.049Z,37.80
2018-08-22T17:46:26.664Z,37.90
2018-08-22T17:48:55.461Z,38.20
2018-08-22T17:51:24.448Z,38.30
2018-08-22T17:53:53.145Z,38.50
2018-08-22T17:56:23.319Z,38.60
2018-08-22T17:58:53.114Z,38.80
2018-08-22T18:01:22.441Z,39.00
2018-08-22T18:03:54.825Z,39.30
2018-08-22T18:06:23.604Z,39.40
2018-08-22T18:08:52.936Z,39.70
2018-08-22T18:11:21.637Z,39.90
2018-08-22T18:13:50.334Z,40.10
2018-08-22T18:16:18.993Z,40.40
2018-08-22T18:18:49.992Z,40.50
2018-08-22T18:21:19.689Z,40.70
2018-08-22T18:23:53.361Z,40.90
2018-08-22T18:26:22.014Z,41.00
2018-08-22T18:28:50.713Z,41.20
2018-08-22T18:31:19.418Z,41.30
2018-08-22T18:34:00.582Z,41.50
2018-08-22T18:36:30.401Z,41.60
2018-08-22T18:39:02.836Z,41.80
2018-08-22T18:41:31.533Z,41.90
2018-08-22T18:44:00.537Z,42.10
2018-08-22T18:46:29.322Z,42.20
2018-08-22T18:48:58.156Z,42.30
2018-08-22T18:51:26.981Z,42.50
2018-08-22T18:53:55.693Z,42.50
2018-08-22T18:56:24.367Z,42.70
2018-08-22T18:58:53.129Z,42.80
2018-08-22T19:01:21.890Z,42.90
2018-08-22T19:03:50.553Z,42.90
2018-08-22T19:06:19.549Z,43.10
2018-08-22T19:08:48.249Z,43.20
2018-08-22T19:11:17.043Z,43.20
2018-08-22T19:13:45.769Z,43.30
2018-08-22T19:16:14.479Z,43.40
2018-08-22T19:18:43.188Z,43.50
2018-08-22T19:21:12.089Z,43.50
2018-08-22T19:23:40.876Z,43.60
2018-08-22T19:26:09.584Z,43.80
2018-08-22T19:29:04.677Z,43.80
2018-08-22T19:31:33.500Z,43.90
2018-08-22T19:34:02.188Z,44.00
2018-08-22T19:36:30.865Z,44.10
2018-08-22T19:38:59.559Z,44.20
2018-08-22T19:41:32.389Z,44.30
2018-08-22T19:44:01.209Z,44.40
2018-08-22T19:46:29.910Z,44.50
2018-08-22T19:48:59.907Z,44.60
2018-08-22T19:51:28.648Z,44.80
2018-08-22T19:54:00.764Z,44.80
2018-08-22T19:56:30.061Z,44.90
2018-08-22T19:58:59.032Z,45.00
2018-08-22T20:01:30.770Z,45.10
2018-08-22T20:03:59.446Z,45.10
2018-08-22T20:06:28.250Z,45.20
2018-08-22T20:08:57.892Z,45.10
2018-08-22T20:11:27.083Z,45.20
2018-08-22T20:14:00.078Z,45.20
2018-08-22T20:16:28.942Z,45.10
2018-08-22T20:18:59.944Z,45.10
2018-08-22T20:21:38.697Z,45.10
2018-08-22T20:24:10.075Z,45.10
2018-08-22T20:26:43.423Z,45.10
2018-08-22T20:29:12.505Z,45.20
2018-08-22T20:31:41.244Z,45.20
2018-08-22T20:34:12.408Z,45.20
2018-08-22T20:36:43.335Z,45.30
2018-08-22T20:39:12.863Z,45.30
2018-08-22T20:41:42.195Z,45.30
2018-08-22T20:44:14.447Z,45.40
2018-08-22T20:46:46.081Z,45.60
2018-08-22T20:49:15.838Z,45.60
2018-08-22T20:51:44.636Z,45.70
2018-08-22T20:54:14.481Z,45.80
2018-08-22T20:56:48.876Z,45.90
2018-08-22T20:59:18.926Z,46.00
2018-08-22T21:01:52.969Z,46.10
2018-08-22T21:04:21.660Z,46.20
2018-08-22T21:06:50.409Z,46.30
2018-08-22T21:09:19.409Z,46.50
2018-08-22T21:11:48.444Z,46.50
2018-08-22T21:14:17.154Z,46.60
2018-08-22T21:16:45.894Z,46.70
2018-08-22T21:19:14.618Z,46.80
2018-08-22T21:21:43.313Z,46.90
2018-08-22T21:24:12.000Z,47.70
2018-08-22T21:26:42.265Z,47.30
2018-08-22T21:29:11.432Z,47.30
2018-08-22T21:31:40.118Z,47.50
2018-08-22T21:34:14.500Z,47.60
2018-08-22T21:36:44.790Z,47.70
2018-08-22T21:39:18.579Z,47.70
2018-08-22T21:41:47.914Z,47.80
2018-08-22T21:44:18.804Z,47.90
2018-08-22T21:46:57.494Z,48.00
2018-08-22T21:49:26.271Z,48.20
2018-08-22T21:51:57.100Z,48.30
2018-08-22T21:54:25.786Z,48.40
2018-08-22T21:56:54.576Z,48.70
2018-08-22T21:59:23.226Z,48.80
2018-08-22T22:01:57.550Z,48.90
2018-08-22T22:04:31.268Z,49.10
2018-08-22T22:07:00.685Z,49.20
2018-08-22T22:09:29.540Z,49.30
2018-08-22T22:11:59.343Z,49.30
2018-08-22T22:14:36.528Z,49.30
2018-08-22T22:17:06.106Z,49.50
2018-08-22T22:19:36.388Z,49.60
2018-08-22T22:22:05.392Z,49.60
2018-08-22T22:24:39.156Z,49.70
2018-08-22T22:27:08.975Z,49.80
2018-08-22T22:29:41.916Z,49.90
2018-08-22T22:32:10.648Z,50.00
2018-08-22T22:34:39.622Z,50.00
2018-08-22T22:37:08.321Z,50.10
2018-08-22T22:39:45.064Z,50.20
2018-08-22T22:42:19.110Z,50.20
2018-08-22T22:44:50.089Z,50.30
2018-08-22T22:47:24.142Z,50.40
2018-08-22T22:49:52.963Z,50.40
2018-08-22T22:52:41.065Z,50.40
2018-08-22T22:55:10.511Z,50.50
2018-08-22T22:57:40.585Z,50.60
2018-08-22T23:00:10.633Z,50.70
2018-08-22T23:02:39.753Z,50.80
2018-08-22T23:05:08.805Z,50.80
2018-08-22T23:07:39.293Z,50.90
2018-08-22T23:10:10.198Z,50.90
2018-08-22T23:12:40.291Z,51.00
2018-08-22T23:15:10.371Z,51.20
2018-08-22T23:17:39.506Z,51.20
2018-08-22T23:20:41.976Z,51.30
2018-08-22T23:23:26.629Z,51.50
2018-08-22T23:25:56.816Z,51.50
2018-08-22T23:28:25.542Z,51.60
2018-08-22T23:30:54.765Z,51.60
2018-08-22T23:33:23.501Z,51.70
2018-08-22T23:35:52.165Z,51.80
2018-08-22T23:38:27.046Z,51.80
2018-08-22T23:40:56.729Z,51.80
2018-08-22T23:43:25.481Z,51.80
2018-08-22T23:45:55.783Z,51.90
2018-08-22T23:48:29.664Z,51.90
2018-08-22T23:51:02.172Z,51.80
2018-08-22T23:53:37.982Z,51.90
2018-08-22T23:56:17.008Z,52.00
2018-08-22T23:58:46.761Z,52.10
